sensor_id;sensor_type;location;lat;lon;timestamp;P1;durP1;ratioP1;P2;durP2;ratioP2
51852;SDS011;37894;53.172;6.598;2022-10-31T00:02:22;41.35;;;21.73;;
51852;SDS011;37894;53.172;6.598;2022-10-31T00:04:48;41.53;;;21.40;;
51852;SDS011;37894;53.172;6.598;2022-10-31T00:07:14;46.22;;;21.75;;
51852;SDS011;37894;53.172;6.598;2022-10-31T00:09:40;44.10;;;24.38;;
51852;SDS011;37894;53.172;6.598;2022-10-31T00:12:05;44.92;;;23.50;;
51852;SDS011;37894;53.172;6.598;2022-10-31T00:14:31;51.45;;;23.17;;
51852;SDS011;37894;53.172;6.598;2022-10-31T00:16:56;55.10;;;22.98;;
51852;SDS011;37894;53.172;6.598;2022-10-31T00:19:22;50.75;;;24.13;;
51852;SDS011;37894;53.172;6.598;2022-10-31T00:21:48;49.95;;;22.88;;
51852;SDS011;37894;53.172;6.598;2022-10-31T00:24:16;45.38;;;23.10;;
51852;SDS011;37894;53.172;6.598;2022-10-31T00:26:41;44.92;;;22.23;;
51852;SDS011;37894;53.172;6.598;2022-10-31T00:29:07;41.15;;;21.88;;
51852;SDS011;37894;53.172;6.598;2022-10-31T00:31:33;47.22;;;23.67;;
51852;SDS011;37894;53.172;6.598;2022-10-31T00:33:58;45.25;;;22.23;;
51852;SDS011;37894;53.172;6.598;2022-10-31T00:36:24;46.58;;;23.50;;
51852;SDS011;37894;53.172;6.598;2022-10-31T00:38:50;48.72;;;24.30;;
51852;SDS011;37894;53.172;6.598;2022-10-31T00:41:16;46.55;;;23.80;;
51852;SDS011;37894;53.172;6.598;2022-10-31T00:43:42;58.97;;;21.42;;
51852;SDS011;37894;53.172;6.598;2022-10-31T00:46:09;40.40;;;22.05;;
51852;SDS011;37894;53.172;6.598;2022-10-31T00:48:35;43.08;;;22.83;;
51852;SDS011;37894;53.172;6.598;2022-10-31T00:51:01;45.90;;;24.27;;
51852;SDS011;37894;53.172;6.598;2022-10-31T00:53:27;40.72;;;22.20;;
51852;SDS011;37894;53.172;6.598;2022-10-31T00:55:52;35.85;;;19.30;;
51852;SDS011;37894;53.172;6.598;2022-10-31T00:58:18;43.70;;;22.73;;
51852;SDS011;37894;53.172;6.598;2022-10-31T01:00:44;41.95;;;21.88;;
51852;SDS011;37894;53.172;6.598;2022-10-31T01:03:19;37.55;;;20.90;;
51852;SDS011;37894;53.172;6.598;2022-10-31T01:06:06;46.88;;;21.08;;
51852;SDS011;37894;53.172;6.598;2022-10-31T01:08:34;45.75;;;21.13;;
51852;SDS011;37894;53.172;6.598;2022-10-31T01:11:11;55.05;;;22.98;;
51852;SDS011;37894;53.172;6.598;2022-10-31T01:13:42;47.97;;;22.35;;
51852;SDS011;37894;53.172;6.598;2022-10-31T01:16:09;43.58;;;20.80;;
51852;SDS011;37894;53.172;6.598;2022-10-31T01:18:37;48.55;;;22.40;;
51852;SDS011;37894;53.172;6.598;2022-10-31T01:21:04;42.05;;;21.30;;
51852;SDS011;37894;53.172;6.598;2022-10-31T01:23:35;50.40;;;22.67;;
51852;SDS011;37894;53.172;6.598;2022-10-31T01:28:38;50.55;;;21.90;;
51852;SDS011;37894;53.172;6.598;2022-10-31T01:31:08;45.53;;;21.80;;
51852;SDS011;37894;53.172;6.598;2022-10-31T01:33:35;37.20;;;20.40;;
51852;SDS011;37894;53.172;6.598;2022-10-31T01:36:10;46.25;;;22.48;;
51852;SDS011;37894;53.172;6.598;2022-10-31T01:38:37;43.30;;;20.90;;
51852;SDS011;37894;53.172;6.598;2022-10-31T01:41:03;40.85;;;20.30;;
51852;SDS011;37894;53.172;6.598;2022-10-31T01:49:24;43.35;;;22.25;;
51852;SDS011;37894;53.172;6.598;2022-10-31T01:52:02;41.58;;;20.35;;
51852;SDS011;37894;53.172;6.598;2022-10-31T01:54:31;40.50;;;18.13;;
51852;SDS011;37894;53.172;6.598;2022-10-31T01:57:00;38.70;;;18.58;;
51852;SDS011;37894;53.172;6.598;2022-10-31T01:59:28;37.63;;;20.10;;
51852;SDS011;37894;53.172;6.598;2022-10-31T02:01:57;51.08;;;21.38;;
51852;SDS011;37894;53.172;6.598;2022-10-31T02:04:23;40.80;;;19.20;;
51852;SDS011;37894;53.172;6.598;2022-10-31T02:06:54;38.63;;;19.70;;
51852;SDS011;37894;53.172;6.598;2022-10-31T02:09:24;40.10;;;18.83;;
51852;SDS011;37894;53.172;6.598;2022-10-31T02:11:51;38.85;;;19.52;;
51852;SDS011;37894;53.172;6.598;2022-10-31T02:14:21;40.03;;;16.88;;
51852;SDS011;37894;53.172;6.598;2022-10-31T02:16:48;44.65;;;18.88;;
51852;SDS011;37894;53.172;6.598;2022-10-31T02:19:16;37.42;;;18.20;;
51852;SDS011;37894;53.172;6.598;2022-10-31T02:21:57;35.53;;;20.10;;
51852;SDS011;37894;53.172;6.598;2022-10-31T02:24:37;34.63;;;16.77;;
51852;SDS011;37894;53.172;6.598;2022-10-31T02:27:16;35.90;;;16.77;;
51852;SDS011;37894;53.172;6.598;2022-10-31T02:33:02;37.15;;;19.48;;
51852;SDS011;37894;53.172;6.598;2022-10-31T02:41:25;42.03;;;21.15;;
51852;SDS011;37894;53.172;6.598;2022-10-31T02:44:12;38.08;;;18.00;;
51852;SDS011;37894;53.172;6.598;2022-10-31T02:49:24;34.75;;;18.05;;
51852;SDS011;37894;53.172;6.598;2022-10-31T02:51:54;29.30;;;15.90;;
51852;SDS011;37894;53.172;6.598;2022-10-31T02:54:24;35.42;;;18.20;;
51852;SDS011;37894;53.172;6.598;2022-10-31T02:56:52;38.92;;;17.98;;
51852;SDS011;37894;53.172;6.598;2022-10-31T02:59:24;34.88;;;17.65;;
51852;SDS011;37894;53.172;6.598;2022-10-31T03:12:43;38.60;;;18.08;;
51852;SDS011;37894;53.172;6.598;2022-10-31T03:15:20;41.40;;;18.40;;
51852;SDS011;37894;53.172;6.598;2022-10-31T03:17:57;35.80;;;18.35;;
51852;SDS011;37894;53.172;6.598;2022-10-31T03:20:39;44.47;;;19.95;;
51852;SDS011;37894;53.172;6.598;2022-10-31T03:23:09;38.92;;;19.23;;
51852;SDS011;37894;53.172;6.598;2022-10-31T03:25:39;37.58;;;18.58;;
51852;SDS011;37894;53.172;6.598;2022-10-31T03:28:05;34.95;;;18.02;;
51852;SDS011;37894;53.172;6.598;2022-10-31T03:30:33;44.60;;;19.48;;
51852;SDS011;37894;53.172;6.598;2022-10-31T03:33:01;35.22;;;20.17;;
51852;SDS011;37894;53.172;6.598;2022-10-31T03:35:29;35.15;;;17.63;;
51852;SDS011;37894;53.172;6.598;2022-10-31T03:37:57;35.70;;;19.05;;
51852;SDS011;37894;53.172;6.598;2022-10-31T03:40:25;34.17;;;17.65;;
51852;SDS011;37894;53.172;6.598;2022-10-31T03:43:03;45.22;;;18.27;;
51852;SDS011;37894;53.172;6.598;2022-10-31T03:45:33;31.80;;;17.83;;
51852;SDS011;37894;53.172;6.598;2022-10-31T03:48:04;37.50;;;19.02;;
51852;SDS011;37894;53.172;6.598;2022-10-31T03:50:33;40.72;;;21.40;;
51852;SDS011;37894;53.172;6.598;2022-10-31T03:53:31;38.47;;;20.73;;
51852;SDS011;37894;53.172;6.598;2022-10-31T03:56:11;41.20;;;20.52;;
51852;SDS011;37894;53.172;6.598;2022-10-31T03:58:48;35.45;;;19.02;;
51852;SDS011;37894;53.172;6.598;2022-10-31T04:01:34;41.38;;;19.65;;
51852;SDS011;37894;53.172;6.598;2022-10-31T04:04:03;51.50;;;18.77;;
51852;SDS011;37894;53.172;6.598;2022-10-31T04:06:31;44.03;;;20.13;;
51852;SDS011;37894;53.172;6.598;2022-10-31T04:09:00;32.85;;;17.15;;
51852;SDS011;37894;53.172;6.598;2022-10-31T04:11:30;37.08;;;19.95;;
51852;SDS011;37894;53.172;6.598;2022-10-31T04:13:59;43.65;;;21.48;;
51852;SDS011;37894;53.172;6.598;2022-10-31T04:16:28;37.03;;;20.75;;
51852;SDS011;37894;53.172;6.598;2022-10-31T04:18:54;42.50;;;18.15;;
51852;SDS011;37894;53.172;6.598;2022-10-31T04:21:26;36.00;;;18.85;;
51852;SDS011;37894;53.172;6.598;2022-10-31T04:23:53;43.83;;;20.80;;
51852;SDS011;37894;53.172;6.598;2022-10-31T04:26:19;33.33;;;19.92;;
51852;SDS011;37894;53.172;6.598;2022-10-31T04:28:45;42.88;;;21.38;;
51852;SDS011;37894;53.172;6.598;2022-10-31T04:31:11;32.58;;;17.95;;
51852;SDS011;37894;53.172;6.598;2022-10-31T04:33:39;34.90;;;19.92;;
51852;SDS011;37894;53.172;6.598;2022-10-31T04:36:05;37.05;;;20.33;;
51852;SDS011;37894;53.172;6.598;2022-10-31T04:38:31;46.63;;;23.45;;
51852;SDS011;37894;53.172;6.598;2022-10-31T04:40:57;47.05;;;23.27;;
51852;SDS011;37894;53.172;6.598;2022-10-31T04:43:23;38.08;;;19.83;;
51852;SDS011;37894;53.172;6.598;2022-10-31T04:45:48;44.67;;;24.35;;
51852;SDS011;37894;53.172;6.598;2022-10-31T04:48:14;43.90;;;23.98;;
51852;SDS011;37894;53.172;6.598;2022-10-31T04:50:40;40.90;;;22.75;;
51852;SDS011;37894;53.172;6.598;2022-10-31T04:53:06;49.70;;;24.35;;
51852;SDS011;37894;53.172;6.598;2022-10-31T04:55:31;47.40;;;24.67;;
51852;SDS011;37894;53.172;6.598;2022-10-31T04:57:57;60.15;;;21.23;;
51852;SDS011;37894;53.172;6.598;2022-10-31T05:00:23;37.58;;;21.05;;
51852;SDS011;37894;53.172;6.598;2022-10-31T05:02:53;42.65;;;21.83;;
51852;SDS011;37894;53.172;6.598;2022-10-31T05:05:21;43.65;;;22.95;;
51852;SDS011;37894;53.172;6.598;2022-10-31T05:07:52;49.00;;;25.33;;
51852;SDS011;37894;53.172;6.598;2022-10-31T05:10:19;46.15;;;25.65;;
51852;SDS011;37894;53.172;6.598;2022-10-31T05:12:53;58.63;;;28.65;;
51852;SDS011;37894;53.172;6.598;2022-10-31T05:15:21;61.10;;;28.75;;
51852;SDS011;37894;53.172;6.598;2022-10-31T05:17:48;61.83;;;29.20;;
51852;SDS011;37894;53.172;6.598;2022-10-31T05:20:14;66.15;;;31.58;;
51852;SDS011;37894;53.172;6.598;2022-10-31T05:22:45;55.45;;;27.35;;
51852;SDS011;37894;53.172;6.598;2022-10-31T05:25:12;59.17;;;30.50;;
51852;SDS011;37894;53.172;6.598;2022-10-31T05:27:39;65.60;;;31.90;;
51852;SDS011;37894;53.172;6.598;2022-10-31T05:30:10;67.07;;;31.52;;
51852;SDS011;37894;53.172;6.598;2022-10-31T05:32:40;68.03;;;31.75;;
51852;SDS011;37894;53.172;6.598;2022-10-31T05:35:09;68.82;;;32.55;;
51852;SDS011;37894;53.172;6.598;2022-10-31T05:37:37;62.65;;;30.83;;
51852;SDS011;37894;53.172;6.598;2022-10-31T05:40:03;60.97;;;29.80;;
51852;SDS011;37894;53.172;6.598;2022-10-31T05:42:31;62.38;;;29.27;;
51852;SDS011;37894;53.172;6.598;2022-10-31T05:44:56;66.50;;;31.15;;
51852;SDS011;37894;53.172;6.598;2022-10-31T05:47:22;54.42;;;26.83;;
51852;SDS011;37894;53.172;6.598;2022-10-31T05:49:48;41.05;;;25.33;;
51852;SDS011;37894;53.172;6.598;2022-10-31T05:52:13;44.60;;;25.92;;
51852;SDS011;37894;53.172;6.598;2022-10-31T05:54:39;59.97;;;26.20;;
51852;SDS011;37894;53.172;6.598;2022-10-31T05:57:05;46.15;;;25.63;;
51852;SDS011;37894;53.172;6.598;2022-10-31T05:59:31;52.55;;;27.17;;
51852;SDS011;37894;53.172;6.598;2022-10-31T06:01:56;69.78;;;31.52;;
51852;SDS011;37894;53.172;6.598;2022-10-31T06:04:22;58.65;;;29.75;;
51852;SDS011;37894;53.172;6.598;2022-10-31T06:06:48;67.40;;;33.00;;
51852;SDS011;37894;53.172;6.598;2022-10-31T06:09:13;57.15;;;28.60;;
51852;SDS011;37894;53.172;6.598;2022-10-31T06:11:39;50.55;;;26.80;;
51852;SDS011;37894;53.172;6.598;2022-10-31T06:14:05;70.70;;;32.15;;
51852;SDS011;37894;53.172;6.598;2022-10-31T06:16:31;55.35;;;28.27;;
51852;SDS011;37894;53.172;6.598;2022-10-31T06:18:56;43.78;;;22.70;;
51852;SDS011;37894;53.172;6.598;2022-10-31T06:21:22;40.60;;;24.40;;
51852;SDS011;37894;53.172;6.598;2022-10-31T06:23:48;46.38;;;24.35;;
51852;SDS011;37894;53.172;6.598;2022-10-31T06:26:14;44.65;;;24.17;;
51852;SDS011;37894;53.172;6.598;2022-10-31T06:28:39;54.83;;;22.52;;
51852;SDS011;37894;53.172;6.598;2022-10-31T06:31:05;45.70;;;23.90;;
51852;SDS011;37894;53.172;6.598;2022-10-31T06:33:31;46.88;;;25.83;;
51852;SDS011;37894;53.172;6.598;2022-10-31T06:35:56;45.45;;;21.30;;
51852;SDS011;37894;53.172;6.598;2022-10-31T06:38:22;48.55;;;24.60;;
51852;SDS011;37894;53.172;6.598;2022-10-31T06:40:48;45.70;;;23.75;;
51852;SDS011;37894;53.172;6.598;2022-10-31T06:43:13;46.88;;;25.85;;
51852;SDS011;37894;53.172;6.598;2022-10-31T06:45:40;44.05;;;23.85;;
51852;SDS011;37894;53.172;6.598;2022-10-31T06:48:05;42.95;;;23.52;;
51852;SDS011;37894;53.172;6.598;2022-10-31T06:50:31;44.58;;;25.30;;
51852;SDS011;37894;53.172;6.598;2022-10-31T06:52:57;38.45;;;22.52;;
51852;SDS011;37894;53.172;6.598;2022-10-31T06:55:24;47.35;;;25.52;;
51852;SDS011;37894;53.172;6.598;2022-10-31T07:00:17;57.35;;;27.25;;
51852;SDS011;37894;53.172;6.598;2022-10-31T07:02:43;40.35;;;24.05;;
51852;SDS011;37894;53.172;6.598;2022-10-31T07:05:08;43.90;;;24.05;;
51852;SDS011;37894;53.172;6.598;2022-10-31T07:07:34;44.15;;;25.08;;
51852;SDS011;37894;53.172;6.598;2022-10-31T07:10:00;51.78;;;28.88;;
51852;SDS011;37894;53.172;6.598;2022-10-31T07:12:25;55.10;;;28.73;;
51852;SDS011;37894;53.172;6.598;2022-10-31T07:14:51;54.55;;;27.35;;
51852;SDS011;37894;53.172;6.598;2022-10-31T07:17:16;52.17;;;26.17;;
51852;SDS011;37894;53.172;6.598;2022-10-31T07:19:42;48.88;;;25.75;;
51852;SDS011;37894;53.172;6.598;2022-10-31T07:22:08;45.13;;;24.63;;
51852;SDS011;37894;53.172;6.598;2022-10-31T07:24:33;47.42;;;24.85;;
51852;SDS011;37894;53.172;6.598;2022-10-31T07:26:59;48.53;;;28.40;;
51852;SDS011;37894;53.172;6.598;2022-10-31T07:29:25;57.28;;;31.42;;
51852;SDS011;37894;53.172;6.598;2022-10-31T07:31:50;50.85;;;26.60;;
51852;SDS011;37894;53.172;6.598;2022-10-31T07:34:16;49.53;;;27.80;;
51852;SDS011;37894;53.172;6.598;2022-10-31T07:36:42;50.50;;;26.80;;
51852;SDS011;37894;53.172;6.598;2022-10-31T07:39:07;63.75;;;31.58;;
51852;SDS011;37894;53.172;6.598;2022-10-31T07:41:33;56.78;;;30.67;;
51852;SDS011;37894;53.172;6.598;2022-10-31T07:43:59;75.53;;;33.78;;
51852;SDS011;37894;53.172;6.598;2022-10-31T07:46:24;89.53;;;34.55;;
51852;SDS011;37894;53.172;6.598;2022-10-31T07:48:51;68.57;;;34.72;;
51852;SDS011;37894;53.172;6.598;2022-10-31T07:51:17;63.15;;;32.47;;
51852;SDS011;37894;53.172;6.598;2022-10-31T07:53:43;73.25;;;32.80;;
51852;SDS011;37894;53.172;6.598;2022-10-31T07:56:08;70.53;;;34.13;;
51852;SDS011;37894;53.172;6.598;2022-10-31T07:58:34;67.20;;;34.58;;
51852;SDS011;37894;53.172;6.598;2022-10-31T08:00:59;66.10;;;33.63;;
51852;SDS011;37894;53.172;6.598;2022-10-31T08:03:25;64.80;;;34.17;;
51852;SDS011;37894;53.172;6.598;2022-10-31T08:05:51;68.43;;;33.55;;
51852;SDS011;37894;53.172;6.598;2022-10-31T08:08:16;59.97;;;31.20;;
51852;SDS011;37894;53.172;6.598;2022-10-31T08:10:42;64.53;;;34.17;;
51852;SDS011;37894;53.172;6.598;2022-10-31T08:13:09;62.67;;;32.72;;
51852;SDS011;37894;53.172;6.598;2022-10-31T08:15:36;61.85;;;32.08;;
51852;SDS011;37894;53.172;6.598;2022-10-31T08:18:06;51.30;;;29.27;;
51852;SDS011;37894;53.172;6.598;2022-10-31T08:20:36;51.35;;;29.48;;
51852;SDS011;37894;53.172;6.598;2022-10-31T08:23:03;50.03;;;30.70;;
51852;SDS011;37894;53.172;6.598;2022-10-31T08:25:30;45.88;;;28.40;;
51852;SDS011;37894;53.172;6.598;2022-10-31T08:27:57;42.17;;;26.15;;
51852;SDS011;37894;53.172;6.598;2022-10-31T08:30:25;38.92;;;25.25;;
51852;SDS011;37894;53.172;6.598;2022-10-31T08:35:31;40.67;;;25.88;;
51852;SDS011;37894;53.172;6.598;2022-10-31T08:37:58;41.75;;;24.85;;
51852;SDS011;37894;53.172;6.598;2022-10-31T08:40:24;35.35;;;23.60;;
51852;SDS011;37894;53.172;6.598;2022-10-31T08:43:00;36.70;;;23.30;;
51852;SDS011;37894;53.172;6.598;2022-10-31T08:45:28;36.67;;;23.20;;
51852;SDS011;37894;53.172;6.598;2022-10-31T08:47:56;37.97;;;23.73;;
51852;SDS011;37894;53.172;6.598;2022-10-31T08:50:23;38.40;;;24.33;;
51852;SDS011;37894;53.172;6.598;2022-10-31T08:52:48;38.17;;;23.83;;
51852;SDS011;37894;53.172;6.598;2022-10-31T08:55:14;31.67;;;21.67;;
51852;SDS011;37894;53.172;6.598;2022-10-31T08:57:40;36.80;;;23.00;;
51852;SDS011;37894;53.172;6.598;2022-10-31T09:00:06;31.48;;;21.65;;
51852;SDS011;37894;53.172;6.598;2022-10-31T09:02:34;37.97;;;21.58;;
51852;SDS011;37894;53.172;6.598;2022-10-31T09:05:00;34.28;;;22.73;;
51852;SDS011;37894;53.172;6.598;2022-10-31T09:07:25;36.45;;;22.30;;
51852;SDS011;37894;53.172;6.598;2022-10-31T09:09:52;37.25;;;22.15;;
51852;SDS011;37894;53.172;6.598;2022-10-31T09:12:17;28.98;;;20.10;;
51852;SDS011;37894;53.172;6.598;2022-10-31T09:14:43;28.15;;;20.88;;
51852;SDS011;37894;53.172;6.598;2022-10-31T09:17:08;34.28;;;20.58;;
51852;SDS011;37894;53.172;6.598;2022-10-31T09:19:34;27.92;;;19.45;;
51852;SDS011;37894;53.172;6.598;2022-10-31T09:22:01;31.13;;;19.90;;
51852;SDS011;37894;53.172;6.598;2022-10-31T09:24:26;31.58;;;21.20;;
51852;SDS011;37894;53.172;6.598;2022-10-31T09:26:52;30.77;;;21.05;;
51852;SDS011;37894;53.172;6.598;2022-10-31T09:29:18;34.35;;;19.90;;
51852;SDS011;37894;53.172;6.598;2022-10-31T09:31:43;31.27;;;20.38;;
51852;SDS011;37894;53.172;6.598;2022-10-31T09:34:17;28.73;;;20.13;;
51852;SDS011;37894;53.172;6.598;2022-10-31T09:36:43;32.45;;;19.70;;
51852;SDS011;37894;53.172;6.598;2022-10-31T09:39:09;26.75;;;17.40;;
51852;SDS011;37894;53.172;6.598;2022-10-31T09:50:01;27.48;;;18.27;;
51852;SDS011;37894;53.172;6.598;2022-10-31T09:52:36;27.67;;;17.38;;
51852;SDS011;37894;53.172;6.598;2022-10-31T09:55:16;28.67;;;18.05;;
51852;SDS011;37894;53.172;6.598;2022-10-31T09:57:45;27.73;;;16.50;;
51852;SDS011;37894;53.172;6.598;2022-10-31T10:00:16;26.05;;;16.60;;
51852;SDS011;37894;53.172;6.598;2022-10-31T10:02:53;23.33;;;15.95;;
51852;SDS011;37894;53.172;6.598;2022-10-31T10:05:29;25.80;;;15.77;;
51852;SDS011;37894;53.172;6.598;2022-10-31T10:08:12;21.65;;;15.05;;
51852;SDS011;37894;53.172;6.598;2022-10-31T10:10:51;26.30;;;14.15;;
51852;SDS011;37894;53.172;6.598;2022-10-31T10:25:14;21.70;;;15.38;;
51852;SDS011;37894;53.172;6.598;2022-10-31T10:30:53;25.92;;;16.15;;
51852;SDS011;37894;53.172;6.598;2022-10-31T10:33:33;22.80;;;15.40;;
51852;SDS011;37894;53.172;6.598;2022-10-31T10:36:06;25.30;;;15.75;;
51852;SDS011;37894;53.172;6.598;2022-10-31T10:38:48;24.95;;;16.20;;
51852;SDS011;37894;53.172;6.598;2022-10-31T10:41:28;23.60;;;15.73;;
51852;SDS011;37894;53.172;6.598;2022-10-31T10:43:58;25.02;;;15.27;;
51852;SDS011;37894;53.172;6.598;2022-10-31T10:49:17;22.00;;;15.45;;
51852;SDS011;37894;53.172;6.598;2022-10-31T11:03:07;25.45;;;17.45;;
51852;SDS011;37894;53.172;6.598;2022-10-31T11:05:47;23.02;;;16.35;;
51852;SDS011;37894;53.172;6.598;2022-10-31T11:11:02;20.50;;;14.15;;
51852;SDS011;37894;53.172;6.598;2022-10-31T11:13:33;19.30;;;13.02;;
51852;SDS011;37894;53.172;6.598;2022-10-31T11:16:04;22.48;;;12.07;;
51852;SDS011;37894;53.172;6.598;2022-10-31T11:18:54;16.00;;;10.30;;
51852;SDS011;37894;53.172;6.598;2022-10-31T11:21:30;15.65;;;10.40;;
51852;SDS011;37894;53.172;6.598;2022-10-31T11:24:02;13.05;;;9.35;;
51852;SDS011;37894;53.172;6.598;2022-10-31T11:26:28;15.73;;;9.90;;
51852;SDS011;37894;53.172;6.598;2022-10-31T11:28:57;12.75;;;8.65;;
51852;SDS011;37894;53.172;6.598;2022-10-31T11:31:23;12.50;;;7.63;;
51852;SDS011;37894;53.172;6.598;2022-10-31T11:33:52;11.70;;;7.65;;
51852;SDS011;37894;53.172;6.598;2022-10-31T11:36:34;11.85;;;7.53;;
51852;SDS011;37894;53.172;6.598;2022-10-31T11:39:02;15.60;;;7.80;;
51852;SDS011;37894;53.172;6.598;2022-10-31T11:41:33;13.98;;;6.85;;
51852;SDS011;37894;53.172;6.598;2022-10-31T11:46:51;12.20;;;6.72;;
51852;SDS011;37894;53.172;6.598;2022-10-31T11:49:27;13.30;;;7.03;;
51852;SDS011;37894;53.172;6.598;2022-10-31T11:51:54;14.80;;;6.53;;
51852;SDS011;37894;53.172;6.598;2022-10-31T11:54:23;12.93;;;6.28;;
51852;SDS011;37894;53.172;6.598;2022-10-31T11:56:52;11.68;;;6.43;;
51852;SDS011;37894;53.172;6.598;2022-10-31T11:59:22;9.70;;;5.65;;
51852;SDS011;37894;53.172;6.598;2022-10-31T12:01:49;10.20;;;5.57;;
51852;SDS011;37894;53.172;6.598;2022-10-31T12:04:16;13.25;;;6.88;;
51852;SDS011;37894;53.172;6.598;2022-10-31T12:06:43;10.23;;;6.18;;
51852;SDS011;37894;53.172;6.598;2022-10-31T12:17:24;13.85;;;6.40;;
51852;SDS011;37894;53.172;6.598;2022-10-31T12:20:03;14.50;;;6.55;;
51852;SDS011;37894;53.172;6.598;2022-10-31T12:30:27;14.48;;;6.40;;
51852;SDS011;37894;53.172;6.598;2022-10-31T12:43:46;14.25;;;7.22;;
51852;SDS011;37894;53.172;6.598;2022-10-31T12:46:51;14.77;;;7.35;;
51852;SDS011;37894;53.172;6.598;2022-10-31T12:54:43;13.05;;;6.22;;
51852;SDS011;37894;53.172;6.598;2022-10-31T12:57:32;12.55;;;5.70;;
51852;SDS011;37894;53.172;6.598;2022-10-31T13:00:07;12.73;;;4.97;;
51852;SDS011;37894;53.172;6.598;2022-10-31T13:02:48;12.45;;;5.15;;
51852;SDS011;37894;53.172;6.598;2022-10-31T13:05:30;10.73;;;5.10;;
51852;SDS011;37894;53.172;6.598;2022-10-31T13:11:32;25.35;;;6.03;;
51852;SDS011;37894;53.172;6.598;2022-10-31T13:14:12;10.20;;;5.03;;
51852;SDS011;37894;53.172;6.598;2022-10-31T13:16:51;15.48;;;5.70;;
51852;SDS011;37894;53.172;6.598;2022-10-31T13:19:39;10.13;;;5.07;;
51852;SDS011;37894;53.172;6.598;2022-10-31T13:22:21;11.52;;;5.28;;
51852;SDS011;37894;53.172;6.598;2022-10-31T13:24:57;9.70;;;5.13;;
51852;SDS011;37894;53.172;6.598;2022-10-31T13:27:33;14.13;;;5.65;;
51852;SDS011;37894;53.172;6.598;2022-10-31T13:30:18;15.40;;;5.63;;
51852;SDS011;37894;53.172;6.598;2022-10-31T13:35:26;12.63;;;5.43;;
51852;SDS011;37894;53.172;6.598;2022-10-31T13:38:11;16.15;;;6.00;;
51852;SDS011;37894;53.172;6.598;2022-10-31T13:41:00;14.65;;;5.57;;
51852;SDS011;37894;53.172;6.598;2022-10-31T13:43:32;9.40;;;5.53;;
51852;SDS011;37894;53.172;6.598;2022-10-31T13:46:20;11.93;;;6.10;;
51852;SDS011;37894;53.172;6.598;2022-10-31T13:54:40;9.68;;;5.45;;
51852;SDS011;37894;53.172;6.598;2022-10-31T13:57:17;12.10;;;5.40;;
51852;SDS011;37894;53.172;6.598;2022-10-31T13:59:56;12.55;;;4.60;;
51852;SDS011;37894;53.172;6.598;2022-10-31T14:02:45;13.57;;;5.28;;
51852;SDS011;37894;53.172;6.598;2022-10-31T14:05:34;16.85;;;6.10;;
51852;SDS011;37894;53.172;6.598;2022-10-31T14:08:01;15.00;;;5.28;;
51852;SDS011;37894;53.172;6.598;2022-10-31T14:15:29;21.60;;;5.65;;
51852;SDS011;37894;53.172;6.598;2022-10-31T14:23:25;12.02;;;5.78;;
51852;SDS011;37894;53.172;6.598;2022-10-31T14:28:43;13.35;;;5.38;;
51852;SDS011;37894;53.172;6.598;2022-10-31T14:33:58;11.48;;;4.90;;
51852;SDS011;37894;53.172;6.598;2022-10-31T14:39:31;9.77;;;5.40;;
51852;SDS011;37894;53.172;6.598;2022-10-31T14:42:11;22.48;;;7.07;;
51852;SDS011;37894;53.172;6.598;2022-10-31T14:50:52;11.25;;;5.95;;
51852;SDS011;37894;53.172;6.598;2022-10-31T14:53:26;12.88;;;6.32;;
51852;SDS011;37894;53.172;6.598;2022-10-31T14:55:58;16.80;;;6.53;;
51852;SDS011;37894;53.172;6.598;2022-10-31T14:58:29;18.05;;;7.35;;
51852;SDS011;37894;53.172;6.598;2022-10-31T15:01:02;14.40;;;6.68;;
51852;SDS011;37894;53.172;6.598;2022-10-31T15:06:05;16.02;;;6.65;;
51852;SDS011;37894;53.172;6.598;2022-10-31T15:08:50;13.80;;;6.65;;
51852;SDS011;37894;53.172;6.598;2022-10-31T15:11:22;18.58;;;8.07;;
51852;SDS011;37894;53.172;6.598;2022-10-31T15:13:53;13.30;;;7.15;;
51852;SDS011;37894;53.172;6.598;2022-10-31T15:16:21;16.42;;;7.07;;
51852;SDS011;37894;53.172;6.598;2022-10-31T15:18:59;17.27;;;7.45;;
51852;SDS011;37894;53.172;6.598;2022-10-31T15:21:34;17.73;;;7.43;;
51852;SDS011;37894;53.172;6.598;2022-10-31T15:24:05;12.93;;;7.13;;
51852;SDS011;37894;53.172;6.598;2022-10-31T15:26:40;15.20;;;7.65;;
51852;SDS011;37894;53.172;6.598;2022-10-31T15:29:16;15.25;;;6.68;;
51852;SDS011;37894;53.172;6.598;2022-10-31T15:31:53;19.48;;;7.28;;
51852;SDS011;37894;53.172;6.598;2022-10-31T15:34:39;17.05;;;8.20;;
51852;SDS011;37894;53.172;6.598;2022-10-31T15:37:10;26.50;;;8.45;;
51852;SDS011;37894;53.172;6.598;2022-10-31T15:39:41;16.67;;;7.82;;
51852;SDS011;37894;53.172;6.598;2022-10-31T15:42:18;17.17;;;7.20;;
51852;SDS011;37894;53.172;6.598;2022-10-31T15:47:38;17.60;;;8.13;;
51852;SDS011;37894;53.172;6.598;2022-10-31T15:52:54;14.27;;;7.35;;
51852;SDS011;37894;53.172;6.598;2022-10-31T15:55:22;18.63;;;6.75;;
51852;SDS011;37894;53.172;6.598;2022-10-31T15:58:33;16.58;;;6.75;;
51852;SDS011;37894;53.172;6.598;2022-10-31T16:00:41;13.57;;;7.82;;
51852;SDS011;37894;53.172;6.598;2022-10-31T16:03:28;15.55;;;6.97;;
51852;SDS011;37894;53.172;6.598;2022-10-31T16:06:01;14.77;;;6.72;;
51852;SDS011;37894;53.172;6.598;2022-10-31T16:16:19;13.68;;;6.78;;
51852;SDS011;37894;53.172;6.598;2022-10-31T16:18:45;11.85;;;6.72;;
51852;SDS011;37894;53.172;6.598;2022-10-31T16:21:12;14.68;;;7.35;;
51852;SDS011;37894;53.172;6.598;2022-10-31T16:23:39;15.02;;;6.28;;
51852;SDS011;37894;53.172;6.598;2022-10-31T16:26:10;13.90;;;6.22;;
51852;SDS011;37894;53.172;6.598;2022-10-31T16:28:53;19.67;;;6.45;;
51852;SDS011;37894;53.172;6.598;2022-10-31T16:31:53;10.48;;;6.60;;
51852;SDS011;37894;53.172;6.598;2022-10-31T16:34:20;13.25;;;6.82;;
51852;SDS011;37894;53.172;6.598;2022-10-31T16:36:47;16.98;;;7.53;;
51852;SDS011;37894;53.172;6.598;2022-10-31T16:39:13;14.50;;;6.63;;
51852;SDS011;37894;53.172;6.598;2022-10-31T16:41:40;17.67;;;9.60;;
51852;SDS011;37894;53.172;6.598;2022-10-31T16:44:14;12.50;;;7.28;;
51852;SDS011;37894;53.172;6.598;2022-10-31T16:49:34;15.57;;;7.18;;
51852;SDS011;37894;53.172;6.598;2022-10-31T16:52:00;15.18;;;8.27;;
51852;SDS011;37894;53.172;6.598;2022-10-31T16:54:25;12.52;;;7.95;;
51852;SDS011;37894;53.172;6.598;2022-10-31T16:56:53;14.90;;;8.02;;
51852;SDS011;37894;53.172;6.598;2022-10-31T16:59:19;15.40;;;8.38;;
51852;SDS011;37894;53.172;6.598;2022-10-31T17:01:45;18.98;;;9.27;;
51852;SDS011;37894;53.172;6.598;2022-10-31T17:04:13;14.15;;;8.73;;
51852;SDS011;37894;53.172;6.598;2022-10-31T17:06:40;13.82;;;8.55;;
51852;SDS011;37894;53.172;6.598;2022-10-31T17:09:06;19.60;;;10.00;;
51852;SDS011;37894;53.172;6.598;2022-10-31T17:11:32;18.95;;;11.70;;
51852;SDS011;37894;53.172;6.598;2022-10-31T17:13:59;15.20;;;9.90;;
51852;SDS011;37894;53.172;6.598;2022-10-31T17:16:25;18.85;;;10.18;;
51852;SDS011;37894;53.172;6.598;2022-10-31T17:18:51;18.08;;;10.07;;
51852;SDS011;37894;53.172;6.598;2022-10-31T17:21:25;17.98;;;11.00;;
51852;SDS011;37894;53.172;6.598;2022-10-31T17:23:52;17.17;;;11.15;;
51852;SDS011;37894;53.172;6.598;2022-10-31T17:26:18;18.73;;;10.80;;
51852;SDS011;37894;53.172;6.598;2022-10-31T17:28:45;19.90;;;11.48;;
51852;SDS011;37894;53.172;6.598;2022-10-31T17:31:21;20.92;;;12.75;;